sensor_id;sensor_type;location;lat;lon;timestamp;P1;durP1;ratioP1;P2;durP2;ratioP2
2404;SDS011;1213;43.206;27.922;2023-04-05T00:02:03;1.43;;;1.33;;
2404;SDS011;1213;43.206;27.922;2023-04-05T00:04:29;1.17;;;1.07;;
2404;SDS011;1213;43.206;27.922;2023-04-05T00:06:58;1.33;;;1.23;;
2404;SDS011;1213;43.206;27.922;2023-04-05T00:09:23;1.30;;;1.17;;
2404;SDS011;1213;43.206;27.922;2023-04-05T00:11:49;1.00;;;0.90;;
2404;SDS011;1213;43.206;27.922;2023-04-05T00:14:14;1.40;;;1.30;;
2404;SDS011;1213;43.206;27.922;2023-04-05T00:16:40;1.70;;;1.30;;
2404;SDS011;1213;43.206;27.922;2023-04-05T00:19:05;1.97;;;1.63;;
2404;SDS011;1213;43.206;27.922;2023-04-05T00:21:30;1.37;;;1.27;;
2404;SDS011;1213;43.206;27.922;2023-04-05T00:23:57;2.20;;;2.10;;
2404;SDS011;1213;43.206;27.922;2023-04-05T00:26:23;1.20;;;1.10;;
2404;SDS011;1213;43.206;27.922;2023-04-05T00:28:49;1.67;;;1.57;;
2404;SDS011;1213;43.206;27.922;2023-04-05T00:31:14;1.00;;;1.00;;
2404;SDS011;1213;43.206;27.922;2023-04-05T00:33:39;1.50;;;1.40;;
2404;SDS011;1213;43.206;27.922;2023-04-05T00:36:08;1.67;;;1.30;;
2404;SDS011;1213;43.206;27.922;2023-04-05T00:38:34;2.70;;;1.67;;
2404;SDS011;1213;43.206;27.922;2023-04-05T00:41:00;1.60;;;1.10;;
2404;SDS011;1213;43.206;27.922;2023-04-05T00:43:25;0.97;;;0.90;;
2404;SDS011;1213;43.206;27.922;2023-04-05T00:45:50;1.43;;;1.33;;
2404;SDS011;1213;43.206;27.922;2023-04-05T00:48:16;1.20;;;1.10;;
2404;SDS011;1213;43.206;27.922;2023-04-05T00:50:41;1.20;;;1.10;;
2404;SDS011;1213;43.206;27.922;2023-04-05T00:53:07;1.40;;;1.30;;
2404;SDS011;1213;43.206;27.922;2023-04-05T00:55:33;10.00;;;1.30;;
2404;SDS011;1213;43.206;27.922;2023-04-05T00:57:58;1.13;;;1.00;;
2404;SDS011;1213;43.206;27.922;2023-04-05T01:00:24;1.23;;;1.13;;
2404;SDS011;1213;43.206;27.922;2023-04-05T01:02:57;1.47;;;1.20;;
2404;SDS011;1213;43.206;27.922;2023-04-05T01:07:58;1.10;;;1.00;;
2404;SDS011;1213;43.206;27.922;2023-04-05T01:10:27;1.87;;;1.77;;
2404;SDS011;1213;43.206;27.922;2023-04-05T01:12:54;0.70;;;0.70;;
2404;SDS011;1213;43.206;27.922;2023-04-05T01:15:19;1.20;;;1.10;;
2404;SDS011;1213;43.206;27.922;2023-04-05T01:17:45;1.53;;;1.23;;
2404;SDS011;1213;43.206;27.922;2023-04-05T01:20:11;1.30;;;1.20;;
2404;SDS011;1213;43.206;27.922;2023-04-05T01:30:19;5.23;;;1.90;;
2404;SDS011;1213;43.206;27.922;2023-04-05T01:32:50;2.27;;;2.13;;
2404;SDS011;1213;43.206;27.922;2023-04-05T01:35:30;1.20;;;1.10;;
2404;SDS011;1213;43.206;27.922;2023-04-05T01:38:01;1.30;;;1.20;;
2404;SDS011;1213;43.206;27.922;2023-04-05T01:40:27;1.60;;;1.50;;
2404;SDS011;1213;43.206;27.922;2023-04-05T01:42:53;2.23;;;1.80;;
2404;SDS011;1213;43.206;27.922;2023-04-05T01:45:18;1.20;;;1.10;;
2404;SDS011;1213;43.206;27.922;2023-04-05T01:47:43;1.37;;;1.27;;
2404;SDS011;1213;43.206;27.922;2023-04-05T01:50:09;1.40;;;1.30;;
2404;SDS011;1213;43.206;27.922;2023-04-05T01:52:34;1.33;;;1.23;;
2404;SDS011;1213;43.206;27.922;2023-04-05T01:55:00;1.47;;;1.37;;
2404;SDS011;1213;43.206;27.922;2023-04-05T01:57:25;2.40;;;2.20;;
2404;SDS011;1213;43.206;27.922;2023-04-05T01:59:50;1.67;;;1.57;;
2404;SDS011;1213;43.206;27.922;2023-04-05T02:02:15;1.97;;;1.87;;
2404;SDS011;1213;43.206;27.922;2023-04-05T02:04:41;2.10;;;1.90;;
2404;SDS011;1213;43.206;27.922;2023-04-05T02:07:06;1.83;;;1.73;;
2404;SDS011;1213;43.206;27.922;2023-04-05T02:09:31;1.43;;;1.27;;
2404;SDS011;1213;43.206;27.922;2023-04-05T02:11:57;1.33;;;1.23;;
2404;SDS011;1213;43.206;27.922;2023-04-05T02:14:23;1.57;;;1.47;;
2404;SDS011;1213;43.206;27.922;2023-04-05T02:16:48;1.87;;;1.43;;
2404;SDS011;1213;43.206;27.922;2023-04-05T02:19:15;2.70;;;2.10;;
2404;SDS011;1213;43.206;27.922;2023-04-05T02:21:40;1.83;;;1.73;;
2404;SDS011;1213;43.206;27.922;2023-04-05T02:24:06;2.80;;;1.83;;
2404;SDS011;1213;43.206;27.922;2023-04-05T02:26:31;1.23;;;1.10;;
2404;SDS011;1213;43.206;27.922;2023-04-05T02:28:56;1.87;;;1.50;;
2404;SDS011;1213;43.206;27.922;2023-04-05T02:31:22;1.83;;;1.73;;
2404;SDS011;1213;43.206;27.922;2023-04-05T02:33:47;1.33;;;1.23;;
2404;SDS011;1213;43.206;27.922;2023-04-05T02:36:13;1.00;;;0.83;;
2404;SDS011;1213;43.206;27.922;2023-04-05T02:38:38;1.40;;;1.30;;
2404;SDS011;1213;43.206;27.922;2023-04-05T02:41:07;1.07;;;0.90;;
2404;SDS011;1213;43.206;27.922;2023-04-05T02:43:32;1.50;;;1.40;;
2404;SDS011;1213;43.206;27.922;2023-04-05T02:45:59;1.53;;;1.43;;
2404;SDS011;1213;43.206;27.922;2023-04-05T02:48:24;2.20;;;1.10;;
2404;SDS011;1213;43.206;27.922;2023-04-05T02:50:50;1.40;;;1.30;;
2404;SDS011;1213;43.206;27.922;2023-04-05T02:53:16;2.20;;;1.93;;
2404;SDS011;1213;43.206;27.922;2023-04-05T02:55:41;1.00;;;0.90;;
2404;SDS011;1213;43.206;27.922;2023-04-05T02:58:07;1.00;;;0.90;;
2404;SDS011;1213;43.206;27.922;2023-04-05T03:00:33;1.47;;;1.37;;
2404;SDS011;1213;43.206;27.922;2023-04-05T03:02:58;1.03;;;0.93;;
2404;SDS011;1213;43.206;27.922;2023-04-05T03:05:23;1.50;;;1.30;;
2404;SDS011;1213;43.206;27.922;2023-04-05T03:07:49;1.63;;;1.00;;
2404;SDS011;1213;43.206;27.922;2023-04-05T03:10:16;1.33;;;1.23;;
2404;SDS011;1213;43.206;27.922;2023-04-05T03:12:44;1.20;;;1.10;;
2404;SDS011;1213;43.206;27.922;2023-04-05T03:15:10;1.47;;;1.37;;
2404;SDS011;1213;43.206;27.922;2023-04-05T03:17:35;1.63;;;1.33;;
2404;SDS011;1213;43.206;27.922;2023-04-05T03:20:01;0.90;;;0.83;;
2404;SDS011;1213;43.206;27.922;2023-04-05T03:22:32;1.33;;;1.23;;
2404;SDS011;1213;43.206;27.922;2023-04-05T03:24:58;1.53;;;1.43;;
2404;SDS011;1213;43.206;27.922;2023-04-05T03:27:24;0.93;;;0.87;;
2404;SDS011;1213;43.206;27.922;2023-04-05T03:29:50;1.00;;;0.90;;
2404;SDS011;1213;43.206;27.922;2023-04-05T03:32:15;2.03;;;1.83;;
2404;SDS011;1213;43.206;27.922;2023-04-05T03:34:41;1.30;;;1.20;;
2404;SDS011;1213;43.206;27.922;2023-04-05T03:37:06;1.27;;;1.17;;
2404;SDS011;1213;43.206;27.922;2023-04-05T03:39:31;1.20;;;1.10;;
2404;SDS011;1213;43.206;27.922;2023-04-05T03:41:57;1.73;;;1.63;;
2404;SDS011;1213;43.206;27.922;2023-04-05T03:44:22;1.37;;;1.27;;
2404;SDS011;1213;43.206;27.922;2023-04-05T03:46:47;2.50;;;2.30;;
2404;SDS011;1213;43.206;27.922;2023-04-05T03:49:12;2.00;;;1.83;;
2404;SDS011;1213;43.206;27.922;2023-04-05T03:51:38;1.40;;;1.30;;
2404;SDS011;1213;43.206;27.922;2023-04-05T03:54:03;1.63;;;1.23;;
2404;SDS011;1213;43.206;27.922;2023-04-05T03:56:28;0.97;;;0.97;;
2404;SDS011;1213;43.206;27.922;2023-04-05T03:58:54;1.37;;;1.27;;
2404;SDS011;1213;43.206;27.922;2023-04-05T04:01:19;0.80;;;0.80;;
2404;SDS011;1213;43.206;27.922;2023-04-05T04:03:44;1.43;;;1.33;;
2404;SDS011;1213;43.206;27.922;2023-04-05T04:06:10;1.10;;;1.00;;
2404;SDS011;1213;43.206;27.922;2023-04-05T04:08:35;1.10;;;1.00;;
2404;SDS011;1213;43.206;27.922;2023-04-05T04:11:00;1.80;;;1.50;;
2404;SDS011;1213;43.206;27.922;2023-04-05T04:13:26;2.10;;;1.00;;
2404;SDS011;1213;43.206;27.922;2023-04-05T04:15:51;0.80;;;0.80;;
2404;SDS011;1213;43.206;27.922;2023-04-05T04:18:16;0.70;;;0.70;;
2404;SDS011;1213;43.206;27.922;2023-04-05T04:20:42;1.77;;;1.63;;
2404;SDS011;1213;43.206;27.922;2023-04-05T04:23:07;1.13;;;1.03;;
2404;SDS011;1213;43.206;27.922;2023-04-05T04:25:34;1.60;;;1.50;;
2404;SDS011;1213;43.206;27.922;2023-04-05T04:28:02;1.43;;;1.00;;
2404;SDS011;1213;43.206;27.922;2023-04-05T04:30:27;1.47;;;1.37;;
2404;SDS011;1213;43.206;27.922;2023-04-05T04:32:52;1.40;;;1.30;;
2404;SDS011;1213;43.206;27.922;2023-04-05T04:37:55;1.40;;;1.23;;
2404;SDS011;1213;43.206;27.922;2023-04-05T04:40:27;1.30;;;1.20;;
2404;SDS011;1213;43.206;27.922;2023-04-05T04:42:53;1.90;;;1.80;;
2404;SDS011;1213;43.206;27.922;2023-04-05T04:45:22;2.57;;;1.57;;
2404;SDS011;1213;43.206;27.922;2023-04-05T04:47:48;2.13;;;2.03;;
2404;SDS011;1213;43.206;27.922;2023-04-05T04:50:13;1.70;;;1.60;;
2404;SDS011;1213;43.206;27.922;2023-04-05T04:52:40;2.00;;;1.80;;
2404;SDS011;1213;43.206;27.922;2023-04-05T04:55:08;2.03;;;1.70;;
2404;SDS011;1213;43.206;27.922;2023-04-05T04:57:34;1.77;;;1.67;;
2404;SDS011;1213;43.206;27.922;2023-04-05T04:59:59;0.90;;;0.90;;
2404;SDS011;1213;43.206;27.922;2023-04-05T05:02:25;1.50;;;1.40;;
2404;SDS011;1213;43.206;27.922;2023-04-05T05:04:51;0.90;;;0.90;;
2404;SDS011;1213;43.206;27.922;2023-04-05T05:07:16;1.63;;;1.53;;
2404;SDS011;1213;43.206;27.922;2023-04-05T05:09:42;1.60;;;1.50;;
2404;SDS011;1213;43.206;27.922;2023-04-05T05:12:08;1.70;;;1.40;;
2404;SDS011;1213;43.206;27.922;2023-04-05T05:14:33;1.40;;;1.30;;
2404;SDS011;1213;43.206;27.922;2023-04-05T05:16:59;2.00;;;1.60;;
2404;SDS011;1213;43.206;27.922;2023-04-05T05:19:24;1.93;;;1.83;;
2404;SDS011;1213;43.206;27.922;2023-04-05T05:21:49;2.23;;;2.03;;
2404;SDS011;1213;43.206;27.922;2023-04-05T05:24:16;1.17;;;1.07;;
2404;SDS011;1213;43.206;27.922;2023-04-05T05:26:43;1.70;;;1.60;;
2404;SDS011;1213;43.206;27.922;2023-04-05T05:29:08;1.80;;;1.67;;
2404;SDS011;1213;43.206;27.922;2023-04-05T05:31:33;1.37;;;1.13;;
2404;SDS011;1213;43.206;27.922;2023-04-05T05:33:59;2.33;;;2.13;;
2404;SDS011;1213;43.206;27.922;2023-04-05T05:36:24;2.90;;;2.27;;
2404;SDS011;1213;43.206;27.922;2023-04-05T05:38:49;3.53;;;2.07;;
2404;SDS011;1213;43.206;27.922;2023-04-05T05:41:15;3.77;;;3.43;;
2404;SDS011;1213;43.206;27.922;2023-04-05T05:43:40;4.67;;;2.13;;
2404;SDS011;1213;43.206;27.922;2023-04-05T05:46:05;1.47;;;1.37;;
2404;SDS011;1213;43.206;27.922;2023-04-05T05:48:31;2.47;;;2.30;;
2404;SDS011;1213;43.206;27.922;2023-04-05T05:50:57;2.60;;;2.17;;
2404;SDS011;1213;43.206;27.922;2023-04-05T05:53:25;7.83;;;4.40;;
2404;SDS011;1213;43.206;27.922;2023-04-05T05:55:50;3.23;;;2.60;;
2404;SDS011;1213;43.206;27.922;2023-04-05T05:58:17;2.67;;;2.47;;
2404;SDS011;1213;43.206;27.922;2023-04-05T06:00:42;4.47;;;3.90;;
2404;SDS011;1213;43.206;27.922;2023-04-05T06:03:08;4.83;;;3.20;;
2404;SDS011;1213;43.206;27.922;2023-04-05T06:05:33;4.50;;;3.57;;
2404;SDS011;1213;43.206;27.922;2023-04-05T06:07:59;2.97;;;2.77;;
2404;SDS011;1213;43.206;27.922;2023-04-05T06:10:24;3.93;;;2.60;;
2404;SDS011;1213;43.206;27.922;2023-04-05T06:12:50;4.10;;;2.43;;
2404;SDS011;1213;43.206;27.922;2023-04-05T06:15:15;2.43;;;2.23;;
2404;SDS011;1213;43.206;27.922;2023-04-05T06:17:40;3.73;;;2.80;;
2404;SDS011;1213;43.206;27.922;2023-04-05T06:20:07;2.50;;;2.07;;
2404;SDS011;1213;43.206;27.922;2023-04-05T06:22:33;1.70;;;1.60;;
2404;SDS011;1213;43.206;27.922;2023-04-05T06:25:00;1.20;;;1.00;;
2404;SDS011;1213;43.206;27.922;2023-04-05T06:27:25;1.70;;;1.60;;
2404;SDS011;1213;43.206;27.922;2023-04-05T06:29:51;2.13;;;1.50;;
2404;SDS011;1213;43.206;27.922;2023-04-05T06:32:16;2.00;;;1.90;;
2404;SDS011;1213;43.206;27.922;2023-04-05T06:34:41;1.80;;;1.70;;
2404;SDS011;1213;43.206;27.922;2023-04-05T06:37:07;2.53;;;2.43;;
2404;SDS011;1213;43.206;27.922;2023-04-05T06:39:32;2.27;;;2.07;;
2404;SDS011;1213;43.206;27.922;2023-04-05T06:41:57;1.73;;;1.60;;
2404;SDS011;1213;43.206;27.922;2023-04-05T06:44:23;4.03;;;2.23;;
2404;SDS011;1213;43.206;27.922;2023-04-05T06:46:48;1.73;;;1.53;;
2404;SDS011;1213;43.206;27.922;2023-04-05T06:49:13;2.43;;;2.30;;
2404;SDS011;1213;43.206;27.922;2023-04-05T06:51:39;2.55;;;2.35;;
2404;SDS011;1213;43.206;27.922;2023-04-05T06:54:04;2.30;;;2.20;;
2404;SDS011;1213;43.206;27.922;2023-04-05T06:56:29;2.70;;;2.40;;
2404;SDS011;1213;43.206;27.922;2023-04-05T06:58:55;1.40;;;1.30;;
2404;SDS011;1213;43.206;27.922;2023-04-05T07:01:22;2.10;;;2.00;;
2404;SDS011;1213;43.206;27.922;2023-04-05T07:03:48;2.43;;;2.23;;
2404;SDS011;1213;43.206;27.922;2023-04-05T07:06:14;2.80;;;1.83;;
2404;SDS011;1213;43.206;27.922;2023-04-05T07:08:39;1.60;;;1.50;;
2404;SDS011;1213;43.206;27.922;2023-04-05T07:11:04;1.83;;;1.63;;
2404;SDS011;1213;43.206;27.922;2023-04-05T07:13:31;2.17;;;2.00;;
2404;SDS011;1213;43.206;27.922;2023-04-05T07:15:59;3.40;;;1.67;;
2404;SDS011;1213;43.206;27.922;2023-04-05T07:18:26;4.80;;;1.90;;
2404;SDS011;1213;43.206;27.922;2023-04-05T07:20:55;3.10;;;2.20;;
2404;SDS011;1213;43.206;27.922;2023-04-05T07:23:24;1.50;;;1.40;;
2404;SDS011;1213;43.206;27.922;2023-04-05T07:25:49;2.80;;;2.03;;
2404;SDS011;1213;43.206;27.922;2023-04-05T07:28:14;2.57;;;2.07;;
2404;SDS011;1213;43.206;27.922;2023-04-05T07:30:40;2.40;;;2.20;;
2404;SDS011;1213;43.206;27.922;2023-04-05T07:33:05;2.80;;;2.10;;
2404;SDS011;1213;43.206;27.922;2023-04-05T07:35:30;2.87;;;2.40;;
2404;SDS011;1213;43.206;27.922;2023-04-05T07:37:56;1.47;;;1.37;;
2404;SDS011;1213;43.206;27.922;2023-04-05T07:40:21;1.60;;;1.50;;
2404;SDS011;1213;43.206;27.922;2023-04-05T07:42:46;2.37;;;2.17;;
2404;SDS011;1213;43.206;27.922;2023-04-05T07:45:12;2.70;;;2.30;;
2404;SDS011;1213;43.206;27.922;2023-04-05T07:47:37;2.03;;;1.90;;
2404;SDS011;1213;43.206;27.922;2023-04-05T07:50:02;2.60;;;2.43;;
2404;SDS011;1213;43.206;27.922;2023-04-05T07:52:28;2.83;;;2.50;;
2404;SDS011;1213;43.206;27.922;2023-04-05T07:54:54;3.40;;;2.60;;
2404;SDS011;1213;43.206;27.922;2023-04-05T07:57:20;2.40;;;1.83;;
2404;SDS011;1213;43.206;27.922;2023-04-05T07:59:47;2.40;;;2.20;;
2404;SDS011;1213;43.206;27.922;2023-04-05T08:02:14;2.53;;;2.33;;
2404;SDS011;1213;43.206;27.922;2023-04-05T08:04:40;2.63;;;2.43;;
2404;SDS011;1213;43.206;27.922;2023-04-05T08:07:05;2.43;;;2.20;;
2404;SDS011;1213;43.206;27.922;2023-04-05T08:09:30;3.27;;;2.37;;
2404;SDS011;1213;43.206;27.922;2023-04-05T08:11:55;2.70;;;1.53;;
2404;SDS011;1213;43.206;27.922;2023-04-05T08:14:21;2.53;;;2.33;;
2404;SDS011;1213;43.206;27.922;2023-04-05T08:16:46;2.27;;;2.07;;
2404;SDS011;1213;43.206;27.922;2023-04-05T08:19:13;2.10;;;1.90;;
2404;SDS011;1213;43.206;27.922;2023-04-05T08:21:39;1.70;;;1.60;;
2404;SDS011;1213;43.206;27.922;2023-04-05T08:24:04;2.50;;;1.50;;
2404;SDS011;1213;43.206;27.922;2023-04-05T08:26:31;1.90;;;1.80;;
2404;SDS011;1213;43.206;27.922;2023-04-05T08:28:56;1.90;;;1.80;;
2404;SDS011;1213;43.206;27.922;2023-04-05T08:31:21;1.97;;;1.53;;
2404;SDS011;1213;43.206;27.922;2023-04-05T08:33:47;2.30;;;2.10;;
2404;SDS011;1213;43.206;27.922;2023-04-05T08:36:12;2.00;;;1.80;;
2404;SDS011;1213;43.206;27.922;2023-04-05T08:38:39;2.03;;;1.83;;
2404;SDS011;1213;43.206;27.922;2023-04-05T08:41:17;3.20;;;1.70;;
2404;SDS011;1213;43.206;27.922;2023-04-05T08:46:13;1.43;;;1.33;;
2404;SDS011;1213;43.206;27.922;2023-04-05T08:48:40;3.97;;;1.90;;
2404;SDS011;1213;43.206;27.922;2023-04-05T08:51:05;2.50;;;2.10;;
2404;SDS011;1213;43.206;27.922;2023-04-05T08:53:33;2.40;;;2.30;;
2404;SDS011;1213;43.206;27.922;2023-04-05T08:55:58;2.70;;;2.00;;
2404;SDS011;1213;43.206;27.922;2023-04-05T08:58:24;1.47;;;1.37;;
2404;SDS011;1213;43.206;27.922;2023-04-05T09:00:50;1.80;;;1.43;;
2404;SDS011;1213;43.206;27.922;2023-04-05T09:03:23;2.80;;;1.53;;
2404;SDS011;1213;43.206;27.922;2023-04-05T09:05:49;2.13;;;1.30;;
2404;SDS011;1213;43.206;27.922;2023-04-05T09:08:15;3.17;;;1.53;;
2404;SDS011;1213;43.206;27.922;2023-04-05T09:10:41;1.50;;;1.30;;
2404;SDS011;1213;43.206;27.922;2023-04-05T09:13:06;2.10;;;1.83;;
2404;SDS011;1213;43.206;27.922;2023-04-05T09:15:33;1.73;;;1.63;;
2404;SDS011;1213;43.206;27.922;2023-04-05T09:17:59;3.10;;;1.57;;
2404;SDS011;1213;43.206;27.922;2023-04-05T09:20:24;2.53;;;1.97;;
2404;SDS011;1213;43.206;27.922;2023-04-05T09:22:49;3.00;;;2.23;;
2404;SDS011;1213;43.206;27.922;2023-04-05T09:27:55;4.23;;;2.10;;
2404;SDS011;1213;43.206;27.922;2023-04-05T09:30:21;1.33;;;1.23;;
2404;SDS011;1213;43.206;27.922;2023-04-05T09:32:46;6.33;;;1.53;;
2404;SDS011;1213;43.206;27.922;2023-04-05T09:35:21;2.90;;;1.50;;
2404;SDS011;1213;43.206;27.922;2023-04-05T09:37:51;1.97;;;1.60;;
2404;SDS011;1213;43.206;27.922;2023-04-05T09:40:20;1.53;;;1.20;;
2404;SDS011;1213;43.206;27.922;2023-04-05T09:42:45;2.80;;;2.20;;
2404;SDS011;1213;43.206;27.922;2023-04-05T09:45:11;2.20;;;2.00;;
2404;SDS011;1213;43.206;27.922;2023-04-05T09:47:36;2.13;;;1.77;;
2404;SDS011;1213;43.206;27.922;2023-04-05T09:52:39;5.40;;;1.60;;
2404;SDS011;1213;43.206;27.922;2023-04-05T09:55:05;1.97;;;1.87;;
2404;SDS011;1213;43.206;27.922;2023-04-05T09:57:33;6.60;;;2.10;;
2404;SDS011;1213;43.206;27.922;2023-04-05T10:00:00;2.63;;;1.73;;
2404;SDS011;1213;43.206;27.922;2023-04-05T10:02:38;3.13;;;2.80;;
2404;SDS011;1213;43.206;27.922;2023-04-05T10:05:07;2.33;;;1.93;;
2404;SDS011;1213;43.206;27.922;2023-04-05T10:07:36;2.50;;;2.00;;
2404;SDS011;1213;43.206;27.922;2023-04-05T10:10:02;2.43;;;2.10;;
2404;SDS011;1213;43.206;27.922;2023-04-05T10:12:27;2.87;;;1.70;;
2404;SDS011;1213;43.206;27.922;2023-04-05T10:14:53;3.00;;;2.00;;
2404;SDS011;1213;43.206;27.922;2023-04-05T10:17:23;3.50;;;2.13;;
2404;SDS011;1213;43.206;27.922;2023-04-05T10:22:31;1.57;;;1.47;;
2404;SDS011;1213;43.206;27.922;2023-04-05T10:24:59;14.63;;;8.37;;
2404;SDS011;1213;43.206;27.922;2023-04-05T10:27:32;2.23;;;2.03;;
2404;SDS011;1213;43.206;27.922;2023-04-05T10:32:37;1.87;;;1.60;;
2404;SDS011;1213;43.206;27.922;2023-04-05T10:35:08;2.10;;;1.90;;
2404;SDS011;1213;43.206;27.922;2023-04-05T10:37:40;2.90;;;1.80;;
2404;SDS011;1213;43.206;27.922;2023-04-05T10:40:07;1.53;;;1.30;;
2404;SDS011;1213;43.206;27.922;2023-04-05T10:42:39;4.60;;;1.47;;
2404;SDS011;1213;43.206;27.922;2023-04-05T10:45:05;2.00;;;1.53;;
2404;SDS011;1213;43.206;27.922;2023-04-05T10:47:35;5.23;;;1.70;;
2404;SDS011;1213;43.206;27.922;2023-04-05T10:50:03;5.97;;;2.10;;
2404;SDS011;1213;43.206;27.922;2023-04-05T10:52:28;1.33;;;1.23;;
2404;SDS011;1213;43.206;27.922;2023-04-05T10:54:54;2.80;;;1.93;;
2404;SDS011;1213;43.206;27.922;2023-04-05T10:57:23;1.40;;;1.30;;
2404;SDS011;1213;43.206;27.922;2023-04-05T10:59:49;2.00;;;1.70;;
2404;SDS011;1213;43.206;27.922;2023-04-05T11:02:15;3.83;;;1.80;;
2404;SDS011;1213;43.206;27.922;2023-04-05T11:04:41;3.03;;;2.43;;
2404;SDS011;1213;43.206;27.922;2023-04-05T11:07:17;1.20;;;1.00;;
2404;SDS011;1213;43.206;27.922;2023-04-05T11:09:50;1.60;;;1.50;;
2404;SDS011;1213;43.206;27.922;2023-04-05T11:12:16;2.40;;;0.80;;
2404;SDS011;1213;43.206;27.922;2023-04-05T11:14:42;3.20;;;2.80;;
2404;SDS011;1213;43.206;27.922;2023-04-05T11:17:24;14.47;;;1.60;;
2404;SDS011;1213;43.206;27.922;2023-04-05T11:19:50;1.77;;;1.00;;
2404;SDS011;1213;43.206;27.922;2023-04-05T11:22:27;1.87;;;1.50;;
2404;SDS011;1213;43.206;27.922;2023-04-05T11:24:59;2.27;;;1.30;;
2404;SDS011;1213;43.206;27.922;2023-04-05T11:27:30;1.93;;;1.23;;
2404;SDS011;1213;43.206;27.922;2023-04-05T11:29:57;1.30;;;1.20;;
2404;SDS011;1213;43.206;27.922;2023-04-05T11:32:22;1.23;;;1.13;;
2404;SDS011;1213;43.206;27.922;2023-04-05T11:34:58;3.37;;;1.30;;
2404;SDS011;1213;43.206;27.922;2023-04-05T11:38:26;2.07;;;1.40;;
2404;SDS011;1213;43.206;27.922;2023-04-05T11:40:24;1.57;;;1.20;;
2404;SDS011;1213;43.206;27.922;2023-04-05T11:43:00;1.10;;;1.00;;
2404;SDS011;1213;43.206;27.922;2023-04-05T11:45:28;1.50;;;1.40;;
2404;SDS011;1213;43.206;27.922;2023-04-05T11:47:53;2.03;;;1.47;;
2404;SDS011;1213;43.206;27.922;2023-04-05T11:50:19;1.20;;;1.10;;
2404;SDS011;1213;43.206;27.922;2023-04-05T11:52:45;5.20;;;2.50;;
2404;SDS011;1213;43.206;27.922;2023-04-05T11:55:30;1.17;;;1.07;;
2404;SDS011;1213;43.206;27.922;2023-04-05T11:57:55;1.10;;;1.00;;
2404;SDS011;1213;43.206;27.922;2023-04-05T12:00:21;1.30;;;1.17;;
2404;SDS011;1213;43.206;27.922;2023-04-05T12:02:46;1.87;;;1.40;;
2404;SDS011;1213;43.206;27.922;2023-04-05T12:05:11;2.00;;;1.60;;
2404;SDS011;1213;43.206;27.922;2023-04-05T12:07:38;1.10;;;1.00;;
2404;SDS011;1213;43.206;27.922;2023-04-05T12:10:07;3.33;;;2.10;;
2404;SDS011;1213;43.206;27.922;2023-04-05T12:12:33;2.83;;;1.40;;
2404;SDS011;1213;43.206;27.922;2023-04-05T12:15:02;1.30;;;1.20;;
2404;SDS011;1213;43.206;27.922;2023-04-05T12:20:02;1.87;;;1.77;;
2404;SDS011;1213;43.206;27.922;2023-04-05T12:22:27;6.20;;;5.70;;
2404;SDS011;1213;43.206;27.922;2023-04-05T12:24:53;2.47;;;2.27;;
2404;SDS011;1213;43.206;27.922;2023-04-05T12:27:18;1.73;;;1.63;;
2404;SDS011;1213;43.206;27.922;2023-04-05T12:30:02;2.73;;;2.47;;
2404;SDS011;1213;43.206;27.922;2023-04-05T12:32:34;2.80;;;2.40;;
2404;SDS011;1213;43.206;27.922;2023-04-05T12:34:59;5.80;;;4.43;;
2404;SDS011;1213;43.206;27.922;2023-04-05T12:37:26;8.10;;;2.67;;
2404;SDS011;1213;43.206;27.922;2023-04-05T12:39:53;3.17;;;2.73;;
2404;SDS011;1213;43.206;27.922;2023-04-05T12:42:18;2.33;;;1.27;;
2404;SDS011;1213;43.206;27.922;2023-04-05T12:44:43;2.30;;;1.80;;
2404;SDS011;1213;43.206;27.922;2023-04-05T12:47:09;4.57;;;2.87;;
2404;SDS011;1213;43.206;27.922;2023-04-05T12:49:37;2.73;;;2.53;;
2404;SDS011;1213;43.206;27.922;2023-04-05T12:52:03;3.90;;;3.17;;
2404;SDS011;1213;43.206;27.922;2023-04-05T12:54:28;3.00;;;2.77;;
2404;SDS011;1213;43.206;27.922;2023-04-05T12:56:55;3.60;;;3.30;;
2404;SDS011;1213;43.206;27.922;2023-04-05T12:59:21;3.83;;;3.10;;
2404;SDS011;1213;43.206;27.922;2023-04-05T13:01:47;4.13;;;3.10;;
2404;SDS011;1213;43.206;27.922;2023-04-05T13:04:12;6.53;;;3.37;;
2404;SDS011;1213;43.206;27.922;2023-04-05T13:06:37;6.30;;;3.90;;
2404;SDS011;1213;43.206;27.922;2023-04-05T13:09:03;4.37;;;3.50;;
2404;SDS011;1213;43.206;27.922;2023-04-05T13:11:28;3.40;;;3.10;;
2404;SDS011;1213;43.206;27.922;2023-04-05T13:13:54;4.30;;;2.50;;
2404;SDS011;1213;43.206;27.922;2023-04-05T13:16:22;2.33;;;1.77;;
2404;SDS011;1213;43.206;27.922;2023-04-05T13:18:48;2.00;;;1.90;;
2404;SDS011;1213;43.206;27.922;2023-04-05T13:21:13;4.50;;;2.07;;
2404;SDS011;1213;43.206;27.922;2023-04-05T13:23:40;4.50;;;2.37;;
2404;SDS011;1213;43.206;27.922;2023-04-05T13:26:06;3.23;;;2.73;;
2404;SDS011;1213;43.206;27.922;2023-04-05T13:28:33;2.20;;;2.00;;
2404;SDS011;1213;43.206;27.922;2023-04-05T13:30:59;3.40;;;2.50;;
2404;SDS011;1213;43.206;27.922;2023-04-05T13:33:27;7.60;;;3.10;;
2404;SDS011;1213;43.206;27.922;2023-04-05T13:35:52;2.40;;;2.20;;
2404;SDS011;1213;43.206;27.922;2023-04-05T13:38:18;3.70;;;2.77;;
2404;SDS011;1213;43.206;27.922;2023-04-05T13:40:45;2.33;;;2.13;;
2404;SDS011;1213;43.206;27.922;2023-04-05T13:43:12;5.63;;;2.70;;
2404;SDS011;1213;43.206;27.922;2023-04-05T13:45:37;5.33;;;3.67;;
2404;SDS011;1213;43.206;27.922;2023-04-05T13:48:03;3.70;;;3.40;;
2404;SDS011;1213;43.206;27.922;2023-04-05T13:50:28;4.13;;;3.73;;
2404;SDS011;1213;43.206;27.922;2023-04-05T13:52:53;3.30;;;3.00;;
2404;SDS011;1213;43.206;27.922;2023-04-05T13:55:19;4.13;;;3.50;;
2404;SDS011;1213;43.206;27.922;2023-04-05T13:57:45;4.03;;;3.63;;
2404;SDS011;1213;43.206;27.922;2023-04-05T14:00:10;18.67;;;12.23;;
2404;SDS011;1213;43.206;27.922;2023-04-05T14:02:36;3.17;;;2.93;;
2404;SDS011;1213;43.206;27.922;2023-04-05T14:05:03;3.33;;;3.03;;
2404;SDS011;1213;43.206;27.922;2023-04-05T14:07:28;4.20;;;3.40;;
2404;SDS011;1213;43.206;27.922;2023-04-05T14:09:53;5.73;;;4.30;;
2404;SDS011;1213;43.206;27.922;2023-04-05T14:12:18;5.57;;;3.77;;
2404;SDS011;1213;43.206;27.922;2023-04-05T14:14:44;5.30;;;3.30;;
2404;SDS011;1213;43.206;27.922;2023-04-05T14:17:09;4.03;;;3.40;;
2404;SDS011;1213;43.206;27.922;2023-04-05T14:19:36;4.50;;;3.53;;
2404;SDS011;1213;43.206;27.922;2023-04-05T14:22:02;5.20;;;4.70;;
2404;SDS011;1213;43.206;27.922;2023-04-05T14:24:27;5.57;;;5.07;;
2404;SDS011;1213;43.206;27.922;2023-04-05T14:26:52;4.10;;;3.80;;
2404;SDS011;1213;43.206;27.922;2023-04-05T14:29:19;5.93;;;4.23;;
2404;SDS011;1213;43.206;27.922;2023-04-05T14:31:44;5.00;;;4.50;;
2404;SDS011;1213;43.206;27.922;2023-04-05T14:34:10;4.40;;;4.00;;
2404;SDS011;1213;43.206;27.922;2023-04-05T14:36:35;5.40;;;4.10;;
2404;SDS011;1213;43.206;27.922;2023-04-05T14:39:01;5.20;;;4.70;;
2404;SDS011;1213;43.206;27.922;2023-04-05T14:41:26;3.77;;;3.33;;
2404;SDS011;1213;43.206;27.922;2023-04-05T14:43:52;5.77;;;4.50;;
2404;SDS011;1213;43.206;27.922;2023-04-05T14:46:17;6.73;;;4.23;;
2404;SDS011;1213;43.206;27.922;2023-04-05T14:48:42;5.47;;;4.93;;
2404;SDS011;1213;43.206;27.922;2023-04-05T14:51:08;4.83;;;3.63;;
2404;SDS011;1213;43.206;27.922;2023-04-05T14:53:33;9.77;;;5.03;;
2404;SDS011;1213;43.206;27.922;2023-04-05T14:55:59;4.57;;;4.17;;
2404;SDS011;1213;43.206;27.922;2023-04-05T14:58:24;6.20;;;4.97;;
2404;SDS011;1213;43.206;27.922;2023-04-05T15:00:49;6.23;;;5.37;;
2404;SDS011;1213;43.206;27.922;2023-04-05T15:03:15;6.60;;;5.50;;
2404;SDS011;1213;43.206;27.922;2023-04-05T15:05:42;7.53;;;6.73;;
2404;SDS011;1213;43.206;27.922;2023-04-05T15:08:07;9.00;;;7.13;;
2404;SDS011;1213;43.206;27.922;2023-04-05T15:10:33;5.00;;;4.43;;
2404;SDS011;1213;43.206;27.922;2023-04-05T15:12:58;5.00;;;4.40;;
2404;SDS011;1213;43.206;27.922;2023-04-05T15:15:23;3.37;;;3.03;;
2404;SDS011;1213;43.206;27.922;2023-04-05T15:17:49;5.90;;;5.33;;
2404;SDS011;1213;43.206;27.922;2023-04-05T15:20:14;10.90;;;5.53;;
2404;SDS011;1213;43.206;27.922;2023-04-05T15:22:39;6.73;;;4.87;;
2404;SDS011;1213;43.206;27.922;2023-04-05T15:25:05;5.43;;;4.93;;